Time;durP1;ratioP1;P1;durP2;ratioP2;P2;SDS_P1;SDS_P2;PMS_P1;PMS_P2;Temp;Humidity;BMP_temperature;BMP_pressure;BME280_temperature;BME280_humidity;BME280_pressure;Samples;Min_cycle;Max_cycle;Signal;HPM_P1;HPM_P2
2022/04/18 00:01:48;;;;;;;0.60;0.60;;;;;;;;;;5091768;28;20026;-73
2022/04/18 00:04:14;;;;;;;2.45;0.93;;;;;;;;;;5093044;28;20062;-69
2022/04/18 00:06:39;;;;;;;2.58;1.23;;;;;;;;;;5103238;28;20055;-73
2022/04/18 00:09:05;;;;;;;3.65;1.67;;;;;;;;;;5103975;28;20672;-69
2022/04/18 00:11:30;;;;;;;3.83;1.40;;;;;;;;;;5103194;28;20406;-71
2022/04/18 00:13:56;;;;;;;3.47;2.20;;;;;;;;;;5102634;28;20031;-70
2022/04/18 00:16:22;;;;;;;3.50;1.42;;;;;;;;;;5096915;28;20111;-68
2022/04/18 00:18:47;;;;;;;3.15;1.85;;;;;;;;;;5094199;28;20463;-69
2022/04/18 00:21:12;;;;;;;4.22;2.13;;;;;;;;;;5078535;28;20063;-71
2022/04/18 00:23:38;;;;;;;2.55;1.83;;;;;;;;;;5103556;28;20037;-69
2022/04/18 00:26:03;;;;;;;3.72;2.10;;;;;;;;;;5084342;28;20050;-73
2022/04/18 00:28:29;;;;;;;2.25;1.33;;;;;;;;;;5102921;28;20055;-72
2022/04/18 00:30:54;;;;;;;5.95;1.88;;;;;;;;;;5099043;28;20027;-74
2022/04/18 00:33:19;;;;;;;2.28;1.30;;;;;;;;;;5091954;28;20031;-69
2022/04/18 00:35:45;;;;;;;2.22;1.48;;;;;;;;;;5090188;28;20046;-70
2022/04/18 00:38:10;;;;;;;4.35;1.23;;;;;;;;;;5074190;28;20032;-70
2022/04/18 00:40:35;;;;;;;1.90;1.42;;;;;;;;;;5097232;28;20111;-68
2022/04/18 00:43:02;;;;;;;2.30;1.45;;;;;;;;;;5109019;28;20036;-68
2022/04/18 00:45:27;;;;;;;1.08;0.80;;;;;;;;;;5106180;28;20027;-72
2022/04/18 00:47:53;;;;;;;0.90;0.90;;;;;;;;;;5094836;28;20024;-69
2022/04/18 00:50:19;;;;;;;1.40;1.10;;;;;;;;;;5090465;28;21119;-71
2022/04/18 00:52:45;;;;;;;1.13;0.93;;;;;;;;;;5098751;28;20031;-69
2022/04/18 00:55:10;;;;;;;1.15;1.00;;;;;;;;;;5102159;28;20088;-69
2022/04/18 00:57:37;;;;;;;1.20;1.10;;;;;;;;;;5103197;28;20031;-71
2022/04/18 01:00:03;;;;;;;1.20;1.10;;;;;;;;;;5082717;28;20052;-71
2022/04/18 01:02:28;;;;;;;1.17;1.00;;;;;;;;;;5092362;28;20088;-72
2022/04/18 01:04:53;;;;;;;1.55;1.25;;;;;;;;;;5090419;28;20438;-70
2022/04/18 01:07:19;;;;;;;2.97;1.45;;;;;;;;;;5096156;28;20032;-69
2022/04/18 01:09:44;;;;;;;1.85;1.52;;;;;;;;;;5093840;28;20042;-70
2022/04/18 01:12:09;;;;;;;0.95;0.95;;;;;;;;;;5096501;28;20032;-68
2022/04/18 01:14:36;;;;;;;1.15;1.05;;;;;;;;;;5095250;28;20055;-70
2022/04/18 01:17:01;;;;;;;1.27;1.10;;;;;;;;;;5091782;28;20027;-70
2022/04/18 01:19:27;;;;;;;1.65;1.20;;;;;;;;;;5101325;28;20045;-69
2022/04/18 01:21:52;;;;;;;1.20;1.00;;;;;;;;;;5098225;28;20076;-69
2022/04/18 01:29:46;;;;;;;0.93;0.93;;;;;;;;;;5101947;28;20089;-69
2022/04/18 01:32:11;;;;;;;0.85;0.85;;;;;;;;;;5102366;28;20035;-70
2022/04/18 01:34:36;;;;;;;1.23;1.10;;;;;;;;;;5090051;28;20028;-69
2022/04/18 01:37:01;;;;;;;1.40;1.30;;;;;;;;;;5101574;28;20032;-68
2022/04/18 01:39:27;;;;;;;1.40;1.30;;;;;;;;;;5101886;28;20509;-73
2022/04/18 01:41:52;;;;;;;1.15;1.10;;;;;;;;;;5094597;28;20027;-70
2022/04/18 01:44:17;;;;;;;1.40;1.30;;;;;;;;;;5093408;28;20046;-68
2022/04/18 01:46:43;;;;;;;1.88;1.25;;;;;;;;;;5101682;28;20072;-67
2022/04/18 01:49:08;;;;;;;1.42;1.33;;;;;;;;;;5100979;28;20035;-70
2022/04/18 01:51:33;;;;;;;1.38;1.27;;;;;;;;;;5100256;28;20403;-67
2022/04/18 01:53:59;;;;;;;1.10;1.00;;;;;;;;;;5101383;28;20055;-69
2022/04/18 01:56:24;;;;;;;1.30;1.20;;;;;;;;;;5101172;28;20102;-69
2022/04/18 01:58:49;;;;;;;1.48;1.38;;;;;;;;;;5090980;28;20019;-73
2022/04/18 02:01:15;;;;;;;1.40;1.30;;;;;;;;;;5081334;28;20040;-68
2022/04/18 02:03:41;;;;;;;1.30;1.20;;;;;;;;;;5075525;28;20347;-71
2022/04/18 02:06:07;;;;;;;1.67;1.20;;;;;;;;;;5075700;28;20398;-70
2022/04/18 02:08:33;;;;;;;1.20;1.10;;;;;;;;;;5081545;28;20039;-66
2022/04/18 02:10:58;;;;;;;1.30;1.20;;;;;;;;;;5079983;28;20035;-72
2022/04/18 02:13:24;;;;;;;1.50;1.40;;;;;;;;;;5078394;28;20040;-69
2022/04/18 02:15:50;;;;;;;1.40;1.30;;;;;;;;;;5070346;28;20035;-69
2022/04/18 02:18:15;;;;;;;3.35;1.30;;;;;;;;;;5080653;28;20024;-72
2022/04/18 02:20:40;;;;;;;1.58;1.48;;;;;;;;;;5070045;28;20347;-68
2022/04/18 02:23:06;;;;;;;1.30;1.20;;;;;;;;;;5071767;28;20044;-73
2022/04/18 02:25:32;;;;;;;1.55;1.45;;;;;;;;;;5068878;28;20032;-70
2022/04/18 02:27:57;;;;;;;1.48;1.38;;;;;;;;;;5080800;28;20024;-68
2022/04/18 02:30:23;;;;;;;1.38;1.27;;;;;;;;;;5080937;28;20441;-69
2022/04/18 02:32:48;;;;;;;1.50;1.40;;;;;;;;;;5080848;28;20085;-69
2022/04/18 02:35:17;;;;;;;1.50;1.40;;;;;;;;;;5081091;28;20039;-69
2022/04/18 02:37:42;;;;;;;1.40;1.30;;;;;;;;;;5078982;28;20199;-70
2022/04/18 02:40:08;;;;;;;1.50;1.40;;;;;;;;;;5080822;28;20050;-68
2022/04/18 02:42:33;;;;;;;1.50;1.40;;;;;;;;;;5081472;28;20032;-70
2022/04/18 02:44:59;;;;;;;1.52;1.42;;;;;;;;;;5080985;28;20071;-70
2022/04/18 02:47:25;;;;;;;1.98;1.38;;;;;;;;;;5075699;28;20032;-70
2022/04/18 02:49:50;;;;;;;2.33;1.90;;;;;;;;;;5073649;28;20047;-71
2022/04/18 02:52:16;;;;;;;1.70;1.60;;;;;;;;;;5080499;28;20112;-72
2022/04/18 02:54:42;;;;;;;2.03;1.85;;;;;;;;;;5080520;28;20122;-71
2022/04/18 02:57:07;;;;;;;2.33;1.90;;;;;;;;;;5080605;28;20495;-70
2022/04/18 02:59:33;;;;;;;2.05;1.85;;;;;;;;;;5078619;28;20052;-70
2022/04/18 03:01:58;;;;;;;3.90;2.88;;;;;;;;;;5080349;28;20059;-69
2022/04/18 03:04:23;;;;;;;2.92;2.30;;;;;;;;;;5080466;28;20036;-68
2022/04/18 03:06:49;;;;;;;2.78;2.35;;;;;;;;;;5077847;28;20043;-74
2022/04/18 03:09:15;;;;;;;3.38;2.75;;;;;;;;;;5069141;28;20031;-72
2022/04/18 03:11:40;;;;;;;4.72;2.90;;;;;;;;;;5069360;28;20085;-73
2022/04/18 03:14:06;;;;;;;3.03;2.20;;;;;;;;;;5080486;28;20103;-69
2022/04/18 03:16:31;;;;;;;2.22;1.98;;;;;;;;;;5078775;28;20457;-72
2022/04/18 03:18:56;;;;;;;1.98;1.80;;;;;;;;;;5064799;28;20355;-68
2022/04/18 03:21:23;;;;;;;1.90;1.67;;;;;;;;;;5074702;28;20128;-69
2022/04/18 03:23:48;;;;;;;3.20;2.30;;;;;;;;;;5068794;28;20573;-67
2022/04/18 03:26:13;;;;;;;2.60;2.40;;;;;;;;;;5070137;28;20036;-69
2022/04/18 03:28:39;;;;;;;4.30;3.88;;;;;;;;;;5078384;28;20024;-72
2022/04/18 03:31:04;;;;;;;5.15;4.40;;;;;;;;;;5084187;28;20024;-70
2022/04/18 03:33:29;;;;;;;4.10;3.70;;;;;;;;;;5084315;28;20320;-70
2022/04/18 03:41:42;;;;;;;3.38;2.80;;;;;;;;;;5030571;28;20355;-71
2022/04/18 03:44:09;;;;;;;4.40;2.78;;;;;;;;;;5049226;28;20036;-69
2022/04/18 03:46:34;;;;;;;25.02;14.30;;;;;;;;;;5078393;28;20523;-71
2022/04/18 03:48:59;;;;;;;52.42;26.00;;;;;;;;;;5071903;28;20028;-69
2022/04/18 03:51:25;;;;;;;65.63;30.73;;;;;;;;;;5078187;28;20457;-69
2022/04/18 03:53:50;;;;;;;99.65;52.67;;;;;;;;;;5083346;28;20032;-69
2022/04/18 03:56:15;;;;;;;67.30;39.65;;;;;;;;;;5083780;28;20036;-71
2022/04/18 03:58:40;;;;;;;97.20;50.03;;;;;;;;;;5084004;28;20028;-73
2022/04/18 04:01:06;;;;;;;81.60;33.55;;;;;;;;;;5102527;28;20043;-70
2022/04/18 04:03:31;;;;;;;32.03;15.75;;;;;;;;;;5088219;28;21167;-70
2022/04/18 04:05:56;;;;;;;14.60;10.70;;;;;;;;;;5090235;28;20032;-69
2022/04/18 04:08:25;;;;;;;10.70;9.57;;;;;;;;;;5090618;28;20032;-74
2022/04/18 04:10:51;;;;;;;14.50;11.00;;;;;;;;;;5101744;28;20354;-69
2022/04/18 04:13:17;;;;;;;24.33;20.45;;;;;;;;;;5104290;28;20449;-74
2022/04/18 04:15:43;;;;;;;9.73;8.50;;;;;;;;;;5103261;28;20027;-69
2022/04/18 04:18:08;;;;;;;10.50;9.27;;;;;;;;;;5090245;28;20019;-69
2022/04/18 04:20:34;;;;;;;47.85;33.95;;;;;;;;;;5087770;28;20069;-73
2022/04/18 04:22:59;;;;;;;40.35;27.65;;;;;;;;;;5096288;28;20469;-71
2022/04/18 04:25:24;;;;;;;66.35;38.72;;;;;;;;;;5102072;28;20027;-69
2022/04/18 04:27:50;;;;;;;140.85;67.78;;;;;;;;;;5100847;28;20019;-68
2022/04/18 04:30:15;;;;;;;139.23;65.90;;;;;;;;;;5099668;28;20023;-73
2022/04/18 04:32:40;;;;;;;106.15;50.03;;;;;;;;;;5090648;28;20020;-70
2022/04/18 04:35:06;;;;;;;91.57;43.13;;;;;;;;;;5087818;28;20180;-70
2022/04/18 04:37:31;;;;;;;95.22;43.35;;;;;;;;;;5090482;28;20358;-71
2022/04/18 04:39:57;;;;;;;27.25;13.75;;;;;;;;;;5098394;28;20031;-74
2022/04/18 04:42:22;;;;;;;30.30;17.30;;;;;;;;;;5101503;28;20027;-74
2022/04/18 04:44:47;;;;;;;17.05;8.60;;;;;;;;;;5100375;28;20121;-73
2022/04/18 04:47:13;;;;;;;18.90;10.52;;;;;;;;;;5092206;28;20024;-69
2022/04/18 04:49:38;;;;;;;35.45;19.00;;;;;;;;;;5100836;28;20030;-70
2022/04/18 04:52:05;;;;;;;55.28;28.52;;;;;;;;;;5101951;28;20020;-69
2022/04/18 04:54:31;;;;;;;32.42;16.50;;;;;;;;;;5101913;28;20042;-69
2022/04/18 04:56:56;;;;;;;21.15;13.15;;;;;;;;;;5096245;28;20024;-72
2022/04/18 04:59:21;;;;;;;12.30;9.20;;;;;;;;;;5091166;28;20455;-69
2022/04/18 05:01:47;;;;;;;31.05;15.68;;;;;;;;;;5103057;28;21009;-74
2022/04/18 05:04:12;;;;;;;23.90;12.07;;;;;;;;;;5097224;28;20463;-71
2022/04/18 05:06:37;;;;;;;185.15;69.13;;;;;;;;;;5090379;28;20446;-69
2022/04/18 05:09:03;;;;;;;52.80;17.88;;;;;;;;;;5090595;28;21020;-69
2022/04/18 05:11:28;;;;;;;31.40;13.90;;;;;;;;;;5100250;28;20343;-67
2022/04/18 05:13:54;;;;;;;74.22;31.63;;;;;;;;;;5096666;28;20052;-70
2022/04/18 05:16:19;;;;;;;132.23;54.13;;;;;;;;;;5089362;28;20027;-69
2022/04/18 05:18:45;;;;;;;116.82;47.33;;;;;;;;;;5098134;28;20452;-73
2022/04/18 05:21:11;;;;;;;88.55;33.72;;;;;;;;;;5102331;28;20032;-76
2022/04/18 05:23:36;;;;;;;119.75;47.22;;;;;;;;;;5102409;28;20334;-73
2022/04/18 05:26:01;;;;;;;22.83;10.48;;;;;;;;;;5102304;28;20035;-68
2022/04/18 05:28:27;;;;;;;95.50;37.15;;;;;;;;;;5100301;28;20505;-71
2022/04/18 05:30:52;;;;;;;235.50;87.15;;;;;;;;;;5102267;28;20481;-69
2022/04/18 05:33:18;;;;;;;148.82;62.80;;;;;;;;;;5102075;28;20049;-72
2022/04/18 05:35:43;;;;;;;75.78;31.92;;;;;;;;;;5095293;28;20128;-70
2022/04/18 05:38:09;;;;;;;36.88;17.23;;;;;;;;;;5088122;27;20038;-70
2022/04/18 05:40:34;;;;;;;27.15;11.95;;;;;;;;;;5076878;28;20453;-77
2022/04/18 05:43:02;;;;;;;11.98;7.38;;;;;;;;;;5088366;28;20434;-70
2022/04/18 05:45:28;;;;;;;12.60;9.02;;;;;;;;;;5099596;28;20410;-70
2022/04/18 05:47:53;;;;;;;23.15;13.50;;;;;;;;;;5099465;28;20591;-70
2022/04/18 05:50:19;;;;;;;46.58;22.75;;;;;;;;;;5100154;28;20050;-67
2022/04/18 05:52:45;;;;;;;26.60;13.55;;;;;;;;;;5099899;28;20027;-67
2022/04/18 05:55:10;;;;;;;34.60;14.98;;;;;;;;;;5100169;28;20027;-69
2022/04/18 05:57:36;;;;;;;50.13;22.15;;;;;;;;;;5100987;28;20023;-70
2022/04/18 06:00:02;;;;;;;45.47;20.27;;;;;;;;;;5099745;28;20054;-70
2022/04/18 06:02:27;;;;;;;51.38;21.48;;;;;;;;;;5100022;28;20035;-68
2022/04/18 06:04:53;;;;;;;12.63;6.40;;;;;;;;;;5100177;28;20043;-69
2022/04/18 06:07:18;;;;;;;10.43;7.07;;;;;;;;;;5100584;28;20031;-69
2022/04/18 06:09:43;;;;;;;7.32;5.55;;;;;;;;;;5098705;28;20031;-69
2022/04/18 06:12:09;;;;;;;13.27;8.30;;;;;;;;;;5099773;28;20070;-70
2022/04/18 06:14:34;;;;;;;18.50;9.40;;;;;;;;;;5100740;28;20083;-70
2022/04/18 06:16:59;;;;;;;26.80;12.27;;;;;;;;;;5099208;28;20046;-70
2022/04/18 06:19:24;;;;;;;41.03;17.58;;;;;;;;;;5100509;28;20028;-71
2022/04/18 06:21:50;;;;;;;25.58;10.32;;;;;;;;;;5099707;28;20039;-70
2022/04/18 06:24:16;;;;;;;20.15;8.25;;;;;;;;;;5100760;28;20038;-68
2022/04/18 06:26:41;;;;;;;136.18;44.10;;;;;;;;;;5100567;28;20016;-71
2022/04/18 06:29:07;;;;;;;44.58;17.52;;;;;;;;;;5099651;28;20039;-69
2022/04/18 06:31:32;;;;;;;85.80;31.17;;;;;;;;;;5099600;28;20032;-69
2022/04/18 06:33:58;;;;;;;57.67;20.73;;;;;;;;;;5099341;28;20506;-69
2022/04/18 06:36:23;;;;;;;13.18;6.55;;;;;;;;;;5099967;28;20031;-70
2022/04/18 06:38:48;;;;;;;20.23;9.05;;;;;;;;;;5099061;28;20038;-69
2022/04/18 06:41:14;;;;;;;31.00;13.73;;;;;;;;;;5100219;28;20038;-70
2022/04/18 06:43:39;;;;;;;14.27;7.30;;;;;;;;;;5099512;28;20024;-70
2022/04/18 06:46:04;;;;;;;31.95;13.38;;;;;;;;;;5099697;28;20165;-69
2022/04/18 06:48:30;;;;;;;23.50;9.75;;;;;;;;;;5100032;28;20080;-69
2022/04/18 06:50:56;;;;;;;43.38;25.42;;;;;;;;;;5099957;28;20020;-68
2022/04/18 06:53:21;;;;;;;26.25;14.15;;;;;;;;;;5099807;28;20034;-69
2022/04/18 06:58:31;;;;;;;21.88;9.48;;;;;;;;;;5099218;28;20076;-70
2022/04/18 07:00:56;;;;;;;22.73;11.00;;;;;;;;;;5099066;28;20044;-69
2022/04/18 07:03:22;;;;;;;20.38;9.43;;;;;;;;;;5100344;28;20459;-69
2022/04/18 07:05:47;;;;;;;10.45;5.97;;;;;;;;;;5099442;28;20461;-70
2022/04/18 07:08:13;;;;;;;15.38;7.20;;;;;;;;;;5098510;28;20027;-69
2022/04/18 07:10:38;;;;;;;34.55;14.82;;;;;;;;;;5099009;28;20023;-70
2022/04/18 07:13:03;;;;;;;53.20;22.67;;;;;;;;;;5098996;28;20020;-69
2022/04/18 07:15:29;;;;;;;29.10;12.27;;;;;;;;;;5099119;28;20046;-71
2022/04/18 07:17:54;;;;;;;58.85;25.20;;;;;;;;;;5100040;28;20319;-69
2022/04/18 07:20:20;;;;;;;47.72;19.00;;;;;;;;;;5099528;28;20068;-74
2022/04/18 07:22:45;;;;;;;84.28;31.65;;;;;;;;;;5100258;28;20028;-69
2022/04/18 07:25:10;;;;;;;57.70;21.27;;;;;;;;;;5099605;28;20035;-73
2022/04/18 07:27:36;;;;;;;35.42;13.13;;;;;;;;;;5099785;28;20032;-73
2022/04/18 07:30:02;;;;;;;56.95;23.08;;;;;;;;;;5098706;28;20079;-69
2022/04/18 07:32:28;;;;;;;28.25;11.27;;;;;;;;;;5097621;28;20354;-71
2022/04/18 07:34:53;;;;;;;9.60;5.57;;;;;;;;;;5099545;28;20043;-70
2022/04/18 07:37:19;;;;;;;38.83;16.17;;;;;;;;;;5099588;28;20023;-72
2022/04/18 07:39:44;;;;;;;45.85;20.73;;;;;;;;;;5099674;28;20030;-70
2022/04/18 07:42:09;;;;;;;13.30;6.40;;;;;;;;;;5098480;28;20114;-70
2022/04/18 07:44:35;;;;;;;20.23;15.25;;;;;;;;;;5099776;28;20347;-71
2022/04/18 07:47:00;;;;;;;15.35;9.38;;;;;;;;;;5099446;28;20358;-71
2022/04/18 07:49:25;;;;;;;24.48;12.43;;;;;;;;;;5098417;28;20093;-70
2022/04/18 07:51:51;;;;;;;30.05;20.02;;;;;;;;;;5099599;28;20024;-69
2022/04/18 07:54:19;;;;;;;26.88;12.88;;;;;;;;;;5099183;28;20112;-71
2022/04/18 07:56:44;;;;;;;16.65;11.98;;;;;;;;;;5099401;28;20646;-71
2022/04/18 07:59:10;;;;;;;66.47;36.55;;;;;;;;;;5098851;28;20758;-71
2022/04/18 08:01:35;;;;;;;33.20;17.75;;;;;;;;;;5099575;28;20353;-72
2022/04/18 08:04:01;;;;;;;32.80;17.25;;;;;;;;;;5099530;28;20023;-72
2022/04/18 08:06:27;;;;;;;39.08;20.52;;;;;;;;;;5099495;28;20438;-71
2022/04/18 08:08:52;;;;;;;11.68;6.22;;;;;;;;;;5100442;28;20023;-71
2022/04/18 08:11:18;;;;;;;23.15;12.85;;;;;;;;;;5102556;28;20110;-74
2022/04/18 08:13:44;;;;;;;25.80;16.33;;;;;;;;;;5084995;28;20430;-71
2022/04/18 08:16:10;;;;;;;21.48;11.65;;;;;;;;;;5102611;28;20035;-71
2022/04/18 08:18:36;;;;;;;25.40;15.32;;;;;;;;;;5102574;28;20275;-70
2022/04/18 08:21:03;;;;;;;9.52;6.90;;;;;;;;;;5104287;28;20390;-70
2022/04/18 08:23:28;;;;;;;29.52;17.50;;;;;;;;;;5102916;28;20020;-72
2022/04/18 08:25:53;;;;;;;27.70;17.33;;;;;;;;;;5103529;28;20051;-71
2022/04/18 08:28:18;;;;;;;6.07;3.97;;;;;;;;;;5102778;28;20016;-71
2022/04/18 08:30:44;;;;;;;35.78;23.10;;;;;;;;;;5102263;28;20058;-71
2022/04/18 08:33:09;;;;;;;44.13;27.38;;;;;;;;;;5103246;28;20431;-69
2022/04/18 08:35:34;;;;;;;20.80;14.43;;;;;;;;;;5101622;28;20031;-71
2022/04/18 08:38:00;;;;;;;22.63;16.30;;;;;;;;;;5102402;28;20027;-71
2022/04/18 08:40:26;;;;;;;18.55;12.00;;;;;;;;;;5102854;28;20028;-70
2022/04/18 08:42:53;;;;;;;21.20;14.63;;;;;;;;;;5103379;28;20072;-70
2022/04/18 08:45:22;;;;;;;8.13;6.57;;;;;;;;;;5105569;28;20058;-70
2022/04/18 08:53:33;;;;;;;6.93;4.97;;;;;;;;;;5101805;28;20050;-71
2022/04/18 08:56:00;;;;;;;5.57;3.45;;;;;;;;;;5103364;28;20039;-71
2022/04/18 08:58:28;;;;;;;5.25;4.40;;;;;;;;;;5102800;28;20055;-72
2022/04/18 09:00:54;;;;;;;7.20;6.00;;;;;;;;;;5102639;28;20054;-73
2022/04/18 09:03:20;;;;;;;5.25;3.40;;;;;;;;;;5085433;28;20042;-71
2022/04/18 09:05:45;;;;;;;6.20;4.43;;;;;;;;;;5084317;28;20039;-72
2022/04/18 11:01:06;;;;;;;4.60;3.70;;;;;;;;;;3338519;28;20067;-72
2022/04/18 11:03:34;;;;;;;4.32;3.40;;;;;;;;;;5098720;28;20496;-71
2022/04/18 11:06:00;;;;;;;4.20;3.72;;;;;;;;;;5099811;28;20063;-71
2022/04/18 11:08:28;;;;;;;4.20;3.50;;;;;;;;;;5098725;28;20081;-72
2022/04/18 11:11:02;;;;;;;4.88;3.30;;;;;;;;;;5099785;28;20453;-72
2022/04/18 11:13:30;;;;;;;3.60;2.83;;;;;;;;;;5099862;28;20023;-71
2022/04/18 11:16:02;;;;;;;3.20;2.58;;;;;;;;;;5099690;28;20372;-71
2022/04/18 11:18:32;;;;;;;4.75;3.10;;;;;;;;;;5099643;28;20027;-72
2022/04/18 11:20:57;;;;;;;2.72;2.50;;;;;;;;;;5099789;28;20498;-72
2022/04/18 11:23:30;;;;;;;4.40;2.97;;;;;;;;;;5098490;28;20024;-73
2022/04/18 11:25:59;;;;;;;5.00;3.55;;;;;;;;;;5089866;28;20099;-73
2022/04/18 11:28:31;;;;;;;24.88;15.70;;;;;;;;;;5086775;28;20138;-73
2022/04/18 11:30:56;;;;;;;7.05;5.20;;;;;;;;;;5088057;28;20036;-71
2022/04/18 11:33:22;;;;;;;6.40;3.92;;;;;;;;;;5088279;28;20040;-74
2022/04/18 11:35:48;;;;;;;7.80;4.35;;;;;;;;;;5096638;28;20024;-72
2022/04/18 11:38:13;;;;;;;8.23;5.30;;;;;;;;;;5086883;28;20040;-71
2022/04/18 11:40:39;;;;;;;7.20;5.68;;;;;;;;;;5092012;28;20011;-71
2022/04/18 11:43:15;;;;;;;3.88;3.47;;;;;;;;;;5090296;28;20113;-73
2022/04/18 11:45:41;;;;;;;5.68;4.20;;;;;;;;;;5090207;28;20039;-74
2022/04/18 11:48:07;;;;;;;7.25;5.85;;;;;;;;;;5090844;28;20096;-72
2022/04/18 11:50:37;;;;;;;6.82;5.18;;;;;;;;;;5090641;28;20420;-70
2022/04/18 11:53:04;;;;;;;17.27;10.65;;;;;;;;;;5091826;28;20395;-74
2022/04/18 11:55:29;;;;;;;14.20;9.35;;;;;;;;;;5091493;28;20085;-71
2022/04/18 11:57:54;;;;;;;12.85;8.25;;;;;;;;;;5090210;28;20019;-75
2022/04/18 12:08:37;;;;;;;4.63;3.60;;;;;;;;;;5090051;28;20411;-70
2022/04/18 12:11:02;;;;;;;6.80;4.28;;;;;;;;;;5090828;28;20127;-74
2022/04/18 12:13:27;;;;;;;7.03;4.57;;;;;;;;;;5100214;28;20035;-71
2022/04/18 12:15:53;;;;;;;3.88;3.47;;;;;;;;;;5103660;28;20055;-77
2022/04/18 12:18:19;;;;;;;8.27;5.65;;;;;;;;;;5102285;28;20027;-70
2022/04/18 12:20:48;;;;;;;19.10;13.15;;;;;;;;;;5100357;28;20114;-73
2022/04/18 12:23:15;;;;;;;6.68;5.15;;;;;;;;;;5101024;28;20035;-76
2022/04/18 12:25:43;;;;;;;5.55;3.75;;;;;;;;;;5101898;28;20028;-71
2022/04/18 12:28:08;;;;;;;15.60;9.60;;;;;;;;;;5103433;28;20063;-74
2022/04/18 12:30:33;;;;;;;26.95;17.27;;;;;;;;;;5102718;28;20058;-71
2022/04/18 12:33:12;;;;;;;51.75;29.90;;;;;;;;;;5101314;28;20019;-77
2022/04/18 12:35:40;;;;;;;9.18;6.60;;;;;;;;;;5100165;28;20404;-71
2022/04/18 12:38:06;;;;;;;4.07;3.42;;;;;;;;;;5100282;28;20028;-72
2022/04/18 12:40:42;;;;;;;3.22;2.70;;;;;;;;;;5099779;28;20564;-72
2022/04/18 12:43:16;;;;;;;4.20;3.70;;;;;;;;;;5102068;28;20116;-79
2022/04/18 12:45:42;;;;;;;10.65;8.80;;;;;;;;;;5102261;28;20084;-72
2022/04/18 12:48:07;;;;;;;6.53;5.13;;;;;;;;;;5102314;28;20035;-72
2022/04/18 12:50:36;;;;;;;6.90;4.95;;;;;;;;;;5100594;28;20019;-72
2022/04/18 12:53:01;;;;;;;10.27;7.95;;;;;;;;;;5100376;28;20027;-71
2022/04/18 12:55:29;;;;;;;11.70;10.43;;;;;;;;;;5099097;28;20391;-71
2022/04/18 12:57:54;;;;;;;7.78;5.20;;;;;;;;;;5102252;28;20024;-77
2022/04/18 13:00:20;;;;;;;6.03;4.57;;;;;;;;;;5101738;28;20047;-73
2022/04/18 13:03:04;;;;;;;8.30;6.20;;;;;;;;;;5101017;28;20219;-77
2022/04/18 13:05:31;;;;;;;12.18;9.48;;;;;;;;;;5100984;28;20031;-72
2022/04/18 13:08:00;;;;;;;19.92;16.27;;;;;;;;;;5102292;28;20094;-78
2022/04/18 13:10:29;;;;;;;4.43;4.03;;;;;;;;;;5102059;28;20031;-72
2022/04/18 13:13:13;;;;;;;11.48;9.23;;;;;;;;;;5102236;28;20035;-72
2022/04/18 13:15:39;;;;;;;12.93;8.80;;;;;;;;;;5091365;28;20046;-72
2022/04/18 13:18:08;;;;;;;142.10;65.05;;;;;;;;;;5089919;28;20024;-70
2022/04/18 13:20:34;;;;;;;119.30;72.35;;;;;;;;;;5090352;28;20131;-78
2022/04/18 13:23:00;;;;;;;93.32;50.58;;;;;;;;;;5089288;28;20102;-74
2022/04/18 13:25:25;;;;;;;19.20;13.02;;;;;;;;;;5092921;28;20031;-74
2022/04/18 13:27:55;;;;;;;31.13;20.42;;;;;;;;;;5099716;28;20028;-71
2022/04/18 13:30:21;;;;;;;8.38;4.18;;;;;;;;;;5100565;28;20436;-76
2022/04/18 13:32:46;;;;;;;13.05;8.15;;;;;;;;;;5101834;28;20046;-75
2022/04/18 13:35:12;;;;;;;11.05;6.97;;;;;;;;;;5100534;28;20438;-71
2022/04/18 13:37:37;;;;;;;19.17;12.50;;;;;;;;;;5100145;28;20479;-75
2022/04/18 13:40:03;;;;;;;18.52;11.60;;;;;;;;;;5100209;28;20131;-72
2022/04/18 13:42:28;;;;;;;6.97;4.88;;;;;;;;;;5099527;28;20045;-73
2022/04/18 13:44:54;;;;;;;2.67;2.45;;;;;;;;;;5099263;28;20385;-71
2022/04/18 13:47:20;;;;;;;3.40;1.85;;;;;;;;;;5100608;28;20015;-71
2022/04/18 13:49:45;;;;;;;1.60;1.50;;;;;;;;;;5099626;28;20055;-74
2022/04/18 13:52:11;;;;;;;2.33;1.92;;;;;;;;;;5098044;28;20496;-71
2022/04/18 13:54:37;;;;;;;2.22;1.70;;;;;;;;;;5090762;28;20502;-73
2022/04/18 13:57:03;;;;;;;4.70;3.22;;;;;;;;;;5090904;28;20011;-72
2022/04/18 13:59:29;;;;;;;5.40;4.35;;;;;;;;;;5100081;28;20032;-71
2022/04/18 14:01:54;;;;;;;5.53;3.50;;;;;;;;;;5098802;28;20047;-71
2022/04/18 14:04:19;;;;;;;4.80;3.85;;;;;;;;;;5101239;28;20049;-73
2022/04/18 14:06:45;;;;;;;5.38;4.70;;;;;;;;;;5097949;28;20043;-73
2022/04/18 14:09:11;;;;;;;3.45;3.15;;;;;;;;;;5099458;28;20024;-70
2022/04/18 14:11:39;;;;;;;6.95;4.88;;;;;;;;;;5095442;28;20024;-73
2022/04/18 14:14:05;;;;;;;5.18;3.60;;;;;;;;;;5096637;28;20927;-72
2022/04/18 14:21:58;;;;;;;8.38;7.28;;;;;;;;;;5087334;28;20390;-72
2022/04/18 14:24:23;;;;;;;6.65;5.30;;;;;;;;;;5088561;28;20036;-70
2022/04/18 14:26:48;;;;;;;12.48;9.32;;;;;;;;;;5088430;28;20048;-71
2022/04/18 14:29:14;;;;;;;11.98;9.68;;;;;;;;;;5087094;28;20422;-74
2022/04/18 14:31:39;;;;;;;18.52;12.60;;;;;;;;;;5087969;28;20031;-72
2022/04/18 14:34:05;;;;;;;8.32;7.20;;;;;;;;;;5085788;28;20026;-71
2022/04/18 14:36:30;;;;;;;9.02;7.22;;;;;;;;;;5088686;28;20028;-75
2022/04/18 14:38:55;;;;;;;8.90;7.00;;;;;;;;;;5088787;28;20441;-71
2022/04/18 14:41:21;;;;;;;10.07;8.65;;;;;;;;;;5085731;28;20429;-72
2022/04/18 14:43:47;;;;;;;8.38;7.25;;;;;;;;;;5087891;28;20019;-77
2022/04/18 14:46:13;;;;;;;5.85;4.97;;;;;;;;;;5087450;28;20153;-73
2022/04/18 14:48:38;;;;;;;7.13;6.40;;;;;;;;;;5087710;28;20031;-71
2022/04/18 14:51:03;;;;;;;5.85;5.35;;;;;;;;;;5087382;28;20023;-74
2022/04/18 14:53:29;;;;;;;9.38;7.32;;;;;;;;;;5085692;28;20028;-71
2022/04/18 14:55:54;;;;;;;13.68;11.32;;;;;;;;;;5090951;28;20034;-74
2022/04/18 14:58:20;;;;;;;5.32;3.80;;;;;;;;;;5087391;28;20023;-72
2022/04/18 15:00:45;;;;;;;11.73;9.30;;;;;;;;;;5085399;28;20121;-72
2022/04/18 15:03:11;;;;;;;19.88;15.25;;;;;;;;;;5074298;28;20071;-69
2022/04/18 15:05:36;;;;;;;18.58;13.18;;;;;;;;;;5078207;28;20040;-71
2022/04/18 15:08:02;;;;;;;7.75;6.03;;;;;;;;;;5067459;28;20481;-72
2022/04/18 15:10:27;;;;;;;6.40;5.32;;;;;;;;;;5070444;28;20038;-71
2022/04/18 15:12:54;;;;;;;13.35;10.50;;;;;;;;;;5069575;28;20343;-70
2022/04/18 15:15:22;;;;;;;11.02;6.88;;;;;;;;;;5067298;28;20020;-77
2022/04/18 15:17:48;;;;;;;11.63;8.00;;;;;;;;;;5069603;28;20028;-70
2022/04/18 15:20:13;;;;;;;7.03;4.57;;;;;;;;;;5066602;28;20497;-76
2022/04/18 15:22:39;;;;;;;13.15;6.82;;;;;;;;;;5074852;28;20028;-73
2022/04/18 15:25:05;;;;;;;12.55;8.05;;;;;;;;;;5067201;28;21316;-74
2022/04/18 15:27:30;;;;;;;13.90;10.27;;;;;;;;;;5076507;28;20027;-76
2022/04/18 15:32:39;;;;;;;4.88;4.03;;;;;;;;;;5070230;28;20046;-72
2022/04/18 15:35:05;;;;;;;7.15;5.18;;;;;;;;;;5069366;28;20036;-72
2022/04/18 15:37:32;;;;;;;8.35;5.07;;;;;;;;;;5074621;28;20023;-72
2022/04/18 15:39:57;;;;;;;12.80;7.55;;;;;;;;;;5077766;28;20042;-73
2022/04/18 15:42:23;;;;;;;21.63;15.27;;;;;;;;;;5069842;28;20032;-73
2022/04/18 15:44:49;;;;;;;13.48;9.10;;;;;;;;;;5063724;28;20040;-74
2022/04/18 15:47:14;;;;;;;8.15;5.90;;;;;;;;;;5061480;28;20028;-72
2022/04/18 15:49:40;;;;;;;41.78;21.80;;;;;;;;;;5064968;28;20028;-71
2022/04/18 15:52:05;;;;;;;23.40;14.52;;;;;;;;;;5070704;28;20031;-72
2022/04/18 15:54:30;;;;;;;19.75;14.93;;;;;;;;;;5067637;28;20640;-73
2022/04/18 15:56:56;;;;;;;8.10;5.78;;;;;;;;;;5069527;28;20016;-70
2022/04/18 15:59:22;;;;;;;14.65;8.25;;;;;;;;;;5069890;28;20028;-75
2022/04/18 16:01:47;;;;;;;11.65;6.00;;;;;;;;;;5086223;28;20055;-71
2022/04/18 16:04:13;;;;;;;11.68;4.97;;;;;;;;;;5094148;28;20031;-75
2022/04/18 16:06:39;;;;;;;16.58;10.90;;;;;;;;;;5089358;28;20027;-75
2022/04/18 16:09:05;;;;;;;7.47;4.28;;;;;;;;;;5093361;28;20024;-72
2022/04/18 16:11:30;;;;;;;8.13;4.97;;;;;;;;;;5086365;28;20491;-73
2022/04/18 16:13:56;;;;;;;38.60;20.52;;;;;;;;;;5085046;28;20431;-73
2022/04/18 16:16:28;;;;;;;25.20;11.00;;;;;;;;;;5084837;28;20036;-75
2022/04/18 16:18:54;;;;;;;9.95;6.88;;;;;;;;;;5087209;28;20517;-71
2022/04/18 16:21:20;;;;;;;7.97;5.85;;;;;;;;;;5067594;28;20138;-71
2022/04/18 16:23:45;;;;;;;28.90;19.02;;;;;;;;;;5086464;28;20417;-71
2022/04/18 16:26:10;;;;;;;42.55;27.92;;;;;;;;;;5084652;28;20031;-69
2022/04/18 16:28:36;;;;;;;13.38;8.88;;;;;;;;;;5085221;28;20127;-72
2022/04/18 16:33:47;;;;;;;7.30;6.32;;;;;;;;;;5090069;28;20441;-76
2022/04/18 16:36:14;;;;;;;7.25;6.03;;;;;;;;;;5089774;28;20084;-72
2022/04/18 16:38:40;;;;;;;8.30;7.35;;;;;;;;;;5087498;28;20454;-72
2022/04/18 16:46:33;;;;;;;9.48;7.07;;;;;;;;;;5086798;28;20116;-72
2022/04/18 16:48:58;;;;;;;6.85;6.15;;;;;;;;;;5071229;28;20035;-71
2022/04/18 16:51:23;;;;;;;29.25;19.20;;;;;;;;;;5087348;28;20030;-72
2022/04/18 16:53:49;;;;;;;21.02;13.88;;;;;;;;;;5088516;28;20366;-71
2022/04/18 16:56:14;;;;;;;14.10;10.40;;;;;;;;;;5072766;28;20427;-71
2022/04/18 16:58:39;;;;;;;100.32;57.92;;;;;;;;;;5088597;28;20094;-71
2022/04/18 17:01:05;;;;;;;64.95;37.63;;;;;;;;;;5088765;28;20019;-72